Baker, North Dakota
Current Conditions -  °F | °C
As of 3:15 PM on Tuesday 21 Oct 2014 (Local Time) from K9D7 Reporting Station
Clear Clear  
Wind Chill: 64°   Ceiling: Unl
Heat Index: 64°   Visibility: 10mi
Dew Point: 41°   Wind: 21mph
Humidity: 42%   Direction: 140°SE
Pressure: 29.76"   Gusts: 30mph
Location:  48.3264°N, 99.5237°W
Report Text: K9D7 212015Z AUTO 14018G26KT 10SM CLR 18/05 A2976 RMK AO2
Loading
Personal Weather Stations






























Interactive Weather Map
Tropical Storm Tracking
New forecast layout! Learn more

10-Day Weather Forecast

Advertisements
Track Severe Weather on mobile